createdAt,value
2023-05-25T00:01:06.471Z,96.80
2023-05-25T00:03:38.089Z,96.90
2023-05-25T00:06:09.526Z,96.90
2023-05-25T00:08:43.853Z,96.90
2023-05-25T00:11:15.253Z,96.90
2023-05-25T00:13:46.493Z,97.10
2023-05-25T00:16:19.160Z,96.90
2023-05-25T00:18:50.305Z,97.20
2023-05-25T00:21:21.918Z,96.90
2023-05-25T00:23:53.244Z,97.20
2023-05-25T00:26:24.462Z,97.10
2023-05-25T00:28:57.558Z,97.10
2023-05-25T00:31:28.641Z,97.20
2023-05-25T00:33:59.894Z,97.20
2023-05-25T00:36:30.997Z,97.20
2023-05-25T00:39:02.591Z,97.30
2023-05-25T00:41:36.079Z,97.30
2023-05-25T00:44:07.275Z,97.30
2023-05-25T00:46:39.202Z,97.30
2023-05-25T00:49:10.930Z,97.40
2023-05-25T00:51:43.125Z,97.50
2023-05-25T00:54:15.961Z,97.50
2023-05-25T00:56:52.275Z,97.50
2023-05-25T00:59:32.432Z,97.50
2023-05-25T01:02:07.380Z,97.30
2023-05-25T01:04:41.096Z,97.30
2023-05-25T01:07:14.139Z,97.30
2023-05-25T01:09:47.737Z,97.30
2023-05-25T01:19:15.951Z,97.40
2023-05-25T01:21:51.925Z,97.30
2023-05-25T01:24:33.628Z,97.40
2023-05-25T01:27:15.374Z,97.50
2023-05-25T01:29:48.284Z,97.60
2023-05-25T01:32:23.893Z,97.50
2023-05-25T01:35:00.469Z,97.30
2023-05-25T01:37:32.482Z,97.30
2023-05-25T01:40:04.711Z,97.20
2023-05-25T01:42:39.381Z,97.00
2023-05-25T01:45:15.947Z,96.70
2023-05-25T01:47:57.332Z,96.70
2023-05-25T01:50:37.147Z,96.40
2023-05-25T01:53:10.654Z,96.40
2023-05-25T01:55:44.482Z,96.20
2023-05-25T01:58:17.577Z,96.00
2023-05-25T02:00:51.549Z,96.20
2023-05-25T02:03:23.575Z,96.10
2023-05-25T02:05:56.175Z,96.20
2023-05-25T02:08:27.516Z,96.30
2023-05-25T02:10:58.752Z,95.90
2023-05-25T02:13:31.118Z,96.10
2023-05-25T02:16:02.745Z,95.80
2023-05-25T02:18:34.161Z,95.40
2023-05-25T02:21:05.520Z,95.50
2023-05-25T02:23:36.700Z,95.50
2023-05-25T02:26:07.981Z,95.30
2023-05-25T02:28:39.565Z,94.90
2023-05-25T02:31:10.851Z,94.80
2023-05-25T02:34:02.367Z,94.80
2023-05-25T02:36:33.877Z,94.50
2023-05-25T02:39:05.612Z,94.60
2023-05-25T02:41:37.173Z,94.40
2023-05-25T02:44:08.404Z,94.40
2023-05-25T02:46:41.229Z,94.40
2023-05-25T02:49:12.460Z,94.50
2023-05-25T02:51:43.527Z,94.30
2023-05-25T02:54:14.654Z,94.00
2023-05-25T02:56:46.740Z,94.50
2023-05-25T02:59:18.183Z,93.80
2023-05-25T03:01:49.649Z,94.10
2023-05-25T03:04:21.320Z,93.90
2023-05-25T03:06:53.025Z,93.80
2023-05-25T03:09:24.243Z,93.60
2023-05-25T03:11:55.436Z,93.40
2023-05-25T03:14:33.626Z,93.60
2023-05-25T03:17:08.456Z,93.60
2023-05-25T03:19:39.883Z,93.80
2023-05-25T03:22:11.092Z,94.00
2023-05-25T03:24:42.808Z,93.90
2023-05-25T03:27:14.043Z,94.20
2023-05-25T03:29:45.348Z,94.30
2023-05-25T03:32:16.990Z,94.30
2023-05-25T03:34:48.613Z,94.20
2023-05-25T03:37:20.077Z,94.10
2023-05-25T03:39:51.251Z,93.90
2023-05-25T03:42:22.368Z,93.50
2023-05-25T03:44:54.000Z,93.50
2023-05-25T03:47:25.801Z,93.40
2023-05-25T03:49:57.583Z,93.30
2023-05-25T03:52:29.018Z,93.00
2023-05-25T03:55:00.198Z,93.10
2023-05-25T03:57:31.700Z,93.30
2023-05-25T04:00:03.012Z,93.30
2023-05-25T04:02:36.059Z,93.60
2023-05-25T04:05:08.256Z,93.50
2023-05-25T04:07:40.353Z,93.40
2023-05-25T04:10:12.135Z,93.70
2023-05-25T04:12:43.271Z,93.20
2023-05-25T04:15:16.024Z,92.90
2023-05-25T04:17:47.484Z,92.60
2023-05-25T04:20:18.977Z,92.30
2023-05-25T04:22:51.554Z,92.10
2023-05-25T04:25:22.940Z,91.50
2023-05-25T04:27:54.858Z,91.60
2023-05-25T04:30:26.587Z,91.80
2023-05-25T04:32:59.713Z,91.80
2023-05-25T04:35:32.358Z,91.90
2023-05-25T04:38:04.044Z,91.60
2023-05-25T04:40:37.100Z,91.50
2023-05-25T04:43:08.258Z,91.50
2023-05-25T04:45:39.478Z,91.40
2023-05-25T04:48:10.947Z,91.00
2023-05-25T04:50:43.514Z,90.40
2023-05-25T04:53:14.835Z,90.70
2023-05-25T04:55:58.106Z,90.40
2023-05-25T04:58:26.130Z,88.80
2023-05-25T05:01:03.323Z,90.10
2023-05-25T05:03:35.277Z,90.30
2023-05-25T05:06:08.913Z,90.10
2023-05-25T05:08:43.173Z,89.90
2023-05-25T05:11:15.738Z,89.60
2023-05-25T05:13:49.663Z,89.70
2023-05-25T05:16:20.890Z,90.10
2023-05-25T05:18:52.517Z,89.70
2023-05-25T05:21:23.976Z,89.50
2023-05-25T05:23:55.838Z,90.10
2023-05-25T05:26:29.046Z,88.80
2023-05-25T05:29:00.421Z,88.60
2023-05-25T05:31:32.841Z,88.40
2023-05-25T05:34:08.077Z,88.20
2023-05-25T05:36:52.774Z,88.90
2023-05-25T05:39:11.770Z,88.70
2023-05-25T05:41:44.323Z,88.80
2023-05-25T05:44:15.424Z,88.20
2023-05-25T05:46:47.276Z,87.70
2023-05-25T05:49:18.595Z,87.70
2023-05-25T05:51:49.873Z,86.20
2023-05-25T05:54:21.344Z,85.50
2023-05-25T05:56:53.025Z,86.10
2023-05-25T05:59:25.200Z,85.50
2023-05-25T06:01:56.434Z,85.30
2023-05-25T06:04:29.374Z,85.30
2023-05-25T06:07:00.577Z,85.50
2023-05-25T06:09:32.710Z,85.80
2023-05-25T06:12:04.872Z,85.40
2023-05-25T06:14:36.027Z,84.90
2023-05-25T06:17:08.124Z,85.50
2023-05-25T06:19:39.931Z,85.20
2023-05-25T06:22:11.094Z,84.40
2023-05-25T06:24:42.239Z,84.30
2023-05-25T06:27:14.652Z,83.30
2023-05-25T06:29:45.991Z,82.10
2023-05-25T06:32:17.382Z,82.60
2023-05-25T06:34:48.537Z,82.70
2023-05-25T06:37:19.704Z,82.80
2023-05-25T06:39:50.864Z,83.60
2023-05-25T06:42:21.939Z,83.70
2023-05-25T06:44:53.121Z,82.50
2023-05-25T06:47:24.270Z,83.60
2023-05-25T06:49:55.812Z,85.00
2023-05-25T06:52:28.449Z,84.00
2023-05-25T06:55:02.120Z,83.70
2023-05-25T06:57:33.241Z,83.60
2023-05-25T07:00:04.525Z,82.20
2023-05-25T07:02:36.405Z,82.40
2023-05-25T07:05:08.470Z,82.90
2023-05-25T07:07:39.664Z,82.60
2023-05-25T07:10:11.939Z,83.30
2023-05-25T07:12:43.486Z,83.40
2023-05-25T07:15:16.465Z,83.10
2023-05-25T07:17:48.573Z,83.50
2023-05-25T07:20:20.407Z,83.40
2023-05-25T07:22:52.176Z,83.30
2023-05-25T07:25:23.611Z,83.00
2023-05-25T07:34:21.937Z,82.40
2023-05-25T07:36:53.248Z,82.10
2023-05-25T07:39:24.385Z,82.50
2023-05-25T07:41:55.597Z,82.40
2023-05-25T07:44:27.261Z,82.00
2023-05-25T07:46:58.393Z,82.30
2023-05-25T07:49:30.156Z,82.70
2023-05-25T07:52:01.348Z,83.40
2023-05-25T07:54:39.382Z,83.40
2023-05-25T07:57:10.709Z,83.20
2023-05-25T07:59:43.465Z,83.00
2023-05-25T08:02:14.929Z,83.40
2023-05-25T08:04:46.100Z,82.70
2023-05-25T08:07:17.381Z,82.30
2023-05-25T08:09:48.757Z,80.90
2023-05-25T08:14:52.430Z,80.90
2023-05-25T08:17:24.293Z,80.00
2023-05-25T08:19:57.266Z,79.60
2023-05-25T08:22:28.702Z,79.40
2023-05-25T08:25:00.325Z,79.40
2023-05-25T08:27:33.532Z,79.20
2023-05-25T08:30:03.928Z,79.20
2023-05-25T08:32:35.199Z,79.10
2023-05-25T08:35:07.079Z,79.80
2023-05-25T08:37:38.336Z,80.30
2023-05-25T08:40:12.465Z,79.90
2023-05-25T08:42:48.515Z,79.70
2023-05-25T08:45:34.331Z,80.00
2023-05-25T08:47:58.965Z,79.70
2023-05-25T08:50:32.126Z,79.60
2023-05-25T08:53:05.497Z,80.00
2023-05-25T08:55:38.821Z,80.50
2023-05-25T08:58:22.207Z,79.80
2023-05-25T09:00:55.708Z,79.70
2023-05-25T09:03:27.292Z,79.80
2023-05-25T09:06:00.154Z,80.20
2023-05-25T09:08:32.392Z,80.80
2023-05-25T09:11:05.182Z,80.60
2023-05-25T09:13:36.869Z,80.70
2023-05-25T09:16:08.732Z,81.60
2023-05-25T09:18:39.961Z,82.40
2023-05-25T09:21:11.055Z,82.00
2023-05-25T09:23:43.248Z,82.70
2023-05-25T09:26:14.686Z,83.20
2023-05-25T09:28:53.066Z,83.90
2023-05-25T09:31:27.007Z,84.60
2023-05-25T09:34:00.482Z,85.00
2023-05-25T09:36:31.869Z,86.80
2023-05-25T09:39:03.619Z,86.90
2023-05-25T09:41:42.902Z,85.50
2023-05-25T09:44:16.316Z,86.70
2023-05-25T09:46:54.114Z,87.20
2023-05-25T09:49:25.306Z,86.90
2023-05-25T09:51:57.458Z,86.90
2023-05-25T09:54:34.579Z,86.60
2023-05-25T09:57:06.836Z,86.70
2023-05-25T09:59:38.525Z,86.40
2023-05-25T10:02:13.409Z,85.40
2023-05-25T10:04:48.477Z,83.40
2023-05-25T10:07:29.710Z,82.60
2023-05-25T10:10:07.083Z,81.90
2023-05-25T10:12:39.179Z,82.10
2023-05-25T10:15:15.084Z,82.20
2023-05-25T10:17:54.773Z,82.40
2023-05-25T10:20:29.642Z,82.30
2023-05-25T10:23:13.936Z,82.70
2023-05-25T10:25:53.782Z,82.20
2023-05-25T10:28:33.510Z,81.60
2023-05-25T10:31:05.327Z,81.50
2023-05-25T10:33:39.531Z,81.00
2023-05-25T10:36:15.098Z,81.20
2023-05-25T10:38:46.039Z,81.50
2023-05-25T10:41:18.616Z,81.60
2023-05-25T10:43:50.671Z,81.70
2023-05-25T10:46:23.834Z,82.20
2023-05-25T10:48:55.021Z,82.30
2023-05-25T10:51:27.377Z,82.10
2023-05-25T10:54:04.216Z,82.60
2023-05-25T10:56:46.348Z,83.70
2023-05-25T10:59:17.548Z,84.50
2023-05-25T11:01:55.651Z,85.10
2023-05-25T11:04:26.919Z,85.10
2023-05-25T11:07:09.007Z,85.60
2023-05-25T11:09:42.615Z,85.70
2023-05-25T11:12:28.816Z,85.90
2023-05-25T11:18:19.211Z,86.40
2023-05-25T11:21:03.016Z,86.50
2023-05-25T11:23:32.664Z,86.70
2023-05-25T11:26:08.541Z,86.40
2023-05-25T11:28:42.128Z,86.40
2023-05-25T11:31:14.748Z,86.80
2023-05-25T11:33:48.024Z,87.00
2023-05-25T11:36:22.865Z,87.10
2023-05-25T11:39:04.763Z,87.40
2023-05-25T11:41:30.804Z,87.30
2023-05-25T11:44:09.106Z,87.40
2023-05-25T11:46:40.613Z,87.90
2023-05-25T11:49:12.011Z,88.20
2023-05-25T11:51:46.167Z,88.80
2023-05-25T11:54:24.885Z,89.50
2023-05-25T11:56:59.626Z,90.00
2023-05-25T11:59:32.701Z,90.10
2023-05-25T12:02:05.260Z,90.20
2023-05-25T12:04:37.314Z,90.30
2023-05-25T12:07:09.593Z,90.70
2023-05-25T12:09:40.963Z,90.70
2023-05-25T12:12:12.165Z,91.00
2023-05-25T12:14:50.930Z,91.00
2023-05-25T12:17:23.658Z,91.10
2023-05-25T12:19:54.986Z,91.30
2023-05-25T12:22:26.184Z,91.20
2023-05-25T12:24:57.408Z,91.40
2023-05-25T12:27:29.064Z,91.50
2023-05-25T12:30:01.623Z,91.20
2023-05-25T12:32:33.070Z,91.40
2023-05-25T12:35:08.186Z,91.40
2023-05-25T12:37:39.490Z,91.50
2023-05-25T12:40:15.899Z,91.70
2023-05-25T12:42:47.033Z,92.00
2023-05-25T12:45:18.686Z,92.10
2023-05-25T12:47:50.268Z,92.20
2023-05-25T12:50:21.928Z,92.50
2023-05-25T12:52:53.451Z,92.60
2023-05-25T12:55:32.310Z,92.60
2023-05-25T12:58:11.012Z,92.60
2023-05-25T13:00:43.464Z,93.10
2023-05-25T13:03:14.990Z,93.10
2023-05-25T13:05:47.767Z,93.40
2023-05-25T13:08:18.989Z,93.50
2023-05-25T13:10:52.879Z,93.70
2023-05-25T13:13:31.856Z,93.70
2023-05-25T13:16:04.348Z,93.80
2023-05-25T13:18:35.746Z,93.80
2023-05-25T13:21:07.971Z,94.10
2023-05-25T13:23:43.454Z,94.10
2023-05-25T13:26:14.051Z,94.30
2023-05-25T13:28:45.362Z,94.60
2023-05-25T13:31:19.519Z,94.70
2023-05-25T13:33:50.779Z,94.40
2023-05-25T13:36:22.119Z,94.90
2023-05-25T13:42:05.553Z,95.20
2023-05-25T14:29:03.724Z,91.80
2023-05-25T14:31:35.771Z,91.50
2023-05-25T14:37:05.337Z,91.10
2023-05-25T14:39:37.629Z,90.80
2023-05-25T14:42:08.915Z,90.80
2023-05-25T14:44:43.334Z,90.80
2023-05-25T14:47:14.837Z,91.00
2023-05-25T14:49:46.153Z,91.20
2023-05-25T14:52:19.118Z,90.90
2023-05-25T14:54:49.740Z,90.60
2023-05-25T14:57:20.972Z,90.50
2023-05-25T14:59:52.191Z,90.80
2023-05-25T15:02:23.582Z,91.00
2023-05-25T15:04:55.703Z,91.20
2023-05-25T15:07:27.087Z,91.80
2023-05-25T15:10:05.368Z,92.10
2023-05-25T15:12:44.226Z,92.20
2023-05-25T15:15:19.337Z,92.30
2023-05-25T15:17:54.654Z,92.10
2023-05-25T15:20:28.434Z,92.70
2023-05-25T15:22:59.617Z,93.40
2023-05-25T15:25:45.116Z,93.60
2023-05-25T15:28:17.769Z,94.50
2023-05-25T15:37:36.231Z,94.90
2023-05-25T15:44:11.957Z,94.40
2023-05-25T15:46:39.777Z,94.90
2023-05-25T15:49:19.190Z,95.00
2023-05-25T15:51:52.924Z,94.90
2023-05-25T15:54:31.588Z,94.40
2023-05-25T16:00:03.112Z,95.10
2023-05-25T16:06:03.757Z,96.70
2023-05-25T16:11:58.231Z,96.10
2023-05-25T16:14:13.135Z,96.50
2023-05-25T16:16:51.714Z,96.30
2023-05-25T16:19:29.521Z,95.70
2023-05-25T16:22:09.180Z,96.70
2023-05-25T16:24:40.686Z,97.70
2023-05-25T16:27:13.743Z,97.80
2023-05-25T16:29:45.745Z,97.90
2023-05-25T16:32:17.158Z,97.90
2023-05-25T16:34:48.605Z,98.00
2023-05-25T16:37:19.844Z,98.50
2023-05-25T16:39:51.173Z,98.80
2023-05-25T16:42:22.530Z,99.10
2023-05-25T16:44:54.190Z,99.10
2023-05-25T16:47:25.626Z,99.00
2023-05-25T16:49:56.812Z,99.30
2023-05-25T16:52:28.212Z,99.10
2023-05-25T16:58:50.171Z,99.70
2023-05-25T17:01:22.700Z,99.90
2023-05-25T17:04:03.147Z,99.90
2023-05-25T17:06:42.938Z,99.90
2023-05-25T17:12:05.837Z,99.90
2023-05-25T17:14:45.708Z,99.90
2023-05-25T17:17:28.178Z,99.90
2023-05-25T17:20:01.599Z,99.90
2023-05-25T17:22:32.541Z,99.90
2023-05-25T17:28:21.069Z,99.90
2023-05-25T17:36:37.030Z,99.90
2023-05-25T17:39:12.790Z,99.90
2023-05-25T17:41:47.369Z,99.90
2023-05-25T17:44:16.908Z,99.90
2023-05-25T17:46:48.029Z,99.90
2023-05-25T17:49:34.613Z,99.90
2023-05-25T17:52:05.855Z,99.90
2023-05-25T17:54:37.427Z,99.90
2023-05-25T17:57:12.489Z,99.90
2023-05-25T17:59:45.626Z,99.90
2023-05-25T18:02:16.615Z,99.90
2023-05-25T18:04:48.101Z,99.90
2023-05-25T18:07:19.994Z,99.90
2023-05-25T18:09:51.168Z,99.90
2023-05-25T18:12:23.883Z,99.90
2023-05-25T18:14:56.950Z,99.90
2023-05-25T18:17:28.230Z,99.90
2023-05-25T18:19:59.409Z,99.90
2023-05-25T18:22:30.790Z,99.90
2023-05-25T18:25:21.389Z,99.90
2023-05-25T18:27:52.963Z,99.90
2023-05-25T18:30:24.293Z,99.90
2023-05-25T18:32:55.534Z,99.90
2023-05-25T18:35:26.994Z,99.90
2023-05-25T18:37:58.239Z,99.90
2023-05-25T18:40:38.604Z,99.90
2023-05-25T18:43:09.958Z,99.90
2023-05-25T18:45:41.098Z,99.90
2023-05-25T18:48:12.636Z,99.90
2023-05-25T18:50:43.891Z,99.90
2023-05-25T18:53:15.067Z,99.90
2023-05-25T18:55:49.491Z,99.90
2023-05-25T18:58:20.604Z,99.90
2023-05-25T19:00:52.048Z,99.90
2023-05-25T19:03:23.471Z,99.90
2023-05-25T19:05:54.875Z,99.90
2023-05-25T19:08:26.302Z,99.90
2023-05-25T19:10:57.751Z,99.90
2023-05-25T19:13:28.929Z,99.90
2023-05-25T19:16:00.425Z,99.90
2023-05-25T19:18:31.681Z,99.90
2023-05-25T19:21:07.778Z,99.90
2023-05-25T19:23:39.024Z,99.90
2023-05-25T19:26:10.186Z,99.90
2023-05-25T19:28:44.773Z,99.90
2023-05-25T19:31:16.092Z,99.90
2023-05-25T19:37:27.954Z,99.90
2023-05-25T19:39:59.540Z,99.90
2023-05-25T19:45:20.719Z,99.90
2023-05-25T19:47:54.562Z,99.90
2023-05-25T19:50:27.233Z,99.90
2023-05-25T19:52:59.901Z,99.90
2023-05-25T19:55:31.055Z,99.90
2023-05-25T19:58:02.229Z,99.90
2023-05-25T20:00:33.435Z,99.90
2023-05-25T20:03:04.667Z,99.90
2023-05-25T20:05:49.853Z,99.90
2023-05-25T20:08:10.320Z,99.90
2023-05-25T20:10:41.178Z,99.90
2023-05-25T20:13:12.277Z,99.90
2023-05-25T20:15:44.689Z,99.90
2023-05-25T20:18:16.032Z,99.90
2023-05-25T20:20:47.326Z,99.90
2023-05-25T20:23:22.752Z,99.90
2023-05-25T20:25:55.103Z,99.90
2023-05-25T20:28:26.445Z,99.90
2023-05-25T20:31:11.639Z,99.90
2023-05-25T20:33:42.863Z,99.90
2023-05-25T20:36:15.614Z,99.90
2023-05-25T20:38:49.688Z,99.90
2023-05-25T20:41:21.130Z,99.90
2023-05-25T20:46:45.862Z,99.90
2023-05-25T20:49:16.985Z,99.90
2023-05-25T20:51:50.821Z,99.90
2023-05-25T21:00:53.131Z,99.90
2023-05-25T21:03:36.789Z,99.90
2023-05-25T21:06:08.342Z,99.90
2023-05-25T21:08:39.559Z,99.90
2023-05-25T21:11:12.104Z,99.90
2023-05-25T21:22:22.599Z,99.90
2023-05-25T21:24:53.526Z,99.90
2023-05-25T21:27:24.814Z,99.90
2023-05-25T21:29:56.329Z,99.90
2023-05-25T21:32:27.640Z,99.90
2023-05-25T21:34:59.115Z,99.90
2023-05-25T21:37:30.881Z,99.90
2023-05-25T21:40:02.177Z,99.90
2023-05-25T21:42:33.417Z,99.90
2023-05-25T21:45:04.768Z,99.90
2023-05-25T21:47:36.070Z,99.90
2023-05-25T21:50:07.686Z,99.90
2023-05-25T21:52:39.138Z,99.90
2023-05-25T21:55:22.280Z,99.90
2023-05-25T21:57:57.001Z,99.90
2023-05-25T22:03:24.863Z,99.90
2023-05-25T22:06:03.391Z,99.90
2023-05-25T22:08:34.526Z,99.90
2023-05-25T22:11:07.135Z,99.90
2023-05-25T22:13:38.506Z,99.90
2023-05-25T22:16:10.415Z,99.90
2023-05-25T22:18:42.002Z,99.90
2023-05-25T22:21:13.548Z,99.90
2023-05-25T22:23:48.162Z,99.90
2023-05-25T22:26:19.444Z,99.90
2023-05-25T22:28:52.016Z,99.90
2023-05-25T22:31:55.514Z,99.90
2023-05-25T22:35:13.057Z,99.90
2023-05-25T22:37:21.851Z,99.90
2023-05-25T22:39:53.459Z,99.90
2023-05-25T22:42:25.939Z,99.90
2023-05-25T22:44:57.331Z,99.90
2023-05-25T22:50:20.931Z,99.90
2023-05-25T22:52:58.950Z,99.90
2023-05-25T22:55:47.731Z,99.90
2023-05-25T23:04:04.134Z,99.90
2023-05-25T23:06:34.956Z,99.90
2023-05-25T23:09:06.277Z,99.90
2023-05-25T23:11:37.562Z,99.90
2023-05-25T23:14:13.144Z,99.90
2023-05-25T23:16:45.957Z,99.90
2023-05-25T23:19:17.993Z,99.90
2023-05-25T23:21:49.543Z,99.90
2023-05-25T23:24:20.924Z,99.90
2023-05-25T23:26:54.822Z,99.90
2023-05-25T23:29:24.867Z,99.90
2023-05-25T23:32:03.339Z,99.90
2023-05-25T23:41:00.477Z,99.90
2023-05-25T23:43:31.819Z,99.90
2023-05-25T23:46:13.135Z,99.90
2023-05-25T23:48:46.385Z,99.90
2023-05-25T23:51:18.370Z,99.90
2023-05-25T23:53:54.998Z,99.90
2023-05-25T23:56:33.664Z,99.90
2023-05-25T23:59:10.625Z,99.90
